createdAt,value
2022-12-25T00:00:36.520Z,0.00
2022-12-25T00:01:36.434Z,0.00
2022-12-25T00:02:36.491Z,0.00
2022-12-25T00:03:36.517Z,0.00
2022-12-25T00:04:36.427Z,0.00
2022-12-25T00:05:36.395Z,0.00
2022-12-25T00:06:36.398Z,0.00
2022-12-25T00:07:36.386Z,0.00
2022-12-25T00:08:36.426Z,0.00
2022-12-25T00:09:36.366Z,0.00
2022-12-25T00:10:42.911Z,0.00
2022-12-25T00:11:37.344Z,0.00
2022-12-25T00:12:36.335Z,0.00
2022-12-25T00:13:36.312Z,0.00
2022-12-25T00:14:36.323Z,0.00
2022-12-25T00:15:36.286Z,0.00
2022-12-25T00:16:36.335Z,0.00
2022-12-25T00:17:36.272Z,0.00
2022-12-25T00:18:36.372Z,0.00
2022-12-25T00:19:36.245Z,0.00
2022-12-25T00:20:36.263Z,0.00
2022-12-25T00:21:36.288Z,0.00
2022-12-25T00:22:36.225Z,0.00
2022-12-25T00:23:36.213Z,0.00
2022-12-25T00:24:36.246Z,0.00
2022-12-25T00:25:36.274Z,0.00
2022-12-25T00:26:36.283Z,0.00
2022-12-25T00:27:36.295Z,0.00
2022-12-25T00:28:36.342Z,0.00
2022-12-25T00:29:36.346Z,0.00
2022-12-25T00:30:36.368Z,0.00
2022-12-25T00:31:36.319Z,0.00
2022-12-25T00:32:36.149Z,0.00
2022-12-25T00:33:36.081Z,0.00
2022-12-25T00:34:36.087Z,0.00
2022-12-25T00:35:36.053Z,0.00
2022-12-25T00:36:41.459Z,0.00
2022-12-25T00:37:37.047Z,0.00
2022-12-25T00:38:36.033Z,0.00
2022-12-25T00:39:36.026Z,0.00
2022-12-25T00:40:36.001Z,0.00
2022-12-25T00:41:36.001Z,0.00
2022-12-25T00:42:36.008Z,0.00
2022-12-25T00:43:35.986Z,0.00
2022-12-25T00:44:35.968Z,0.00
2022-12-25T00:45:35.997Z,0.00
2022-12-25T00:46:36.010Z,0.00
2022-12-25T00:47:35.946Z,0.00
2022-12-25T00:48:35.934Z,0.00
2022-12-25T00:49:35.906Z,0.00
2022-12-25T00:50:35.912Z,0.00
2022-12-25T00:51:35.920Z,0.00
2022-12-25T00:52:35.885Z,0.00
2022-12-25T00:53:35.864Z,0.00
2022-12-25T00:54:35.847Z,0.00
2022-12-25T00:55:35.835Z,0.00
2022-12-25T00:56:35.848Z,0.00
2022-12-25T00:57:35.837Z,0.00
2022-12-25T00:58:35.814Z,0.00
2022-12-25T00:59:35.803Z,0.00
2022-12-25T01:00:35.820Z,0.00
2022-12-25T01:01:35.880Z,0.00
2022-12-25T01:02:35.964Z,0.00
2022-12-25T01:03:35.751Z,0.00
2022-12-25T01:04:35.751Z,0.00
2022-12-25T01:05:35.728Z,0.00
2022-12-25T01:06:35.714Z,0.00
2022-12-25T01:07:35.701Z,0.00
2022-12-25T01:08:35.739Z,0.00
2022-12-25T01:09:35.684Z,0.00
2022-12-25T01:10:35.685Z,0.00
2022-12-25T01:11:35.660Z,0.00
2022-12-25T01:12:35.680Z,0.00
2022-12-25T01:13:35.634Z,0.00
2022-12-25T01:14:35.634Z,0.00
2022-12-25T01:15:35.604Z,0.00
2022-12-25T01:16:35.669Z,0.00
2022-12-25T01:17:35.588Z,0.00
2022-12-25T01:18:35.582Z,0.00
2022-12-25T01:19:35.563Z,0.00
2022-12-25T01:20:35.579Z,0.00
2022-12-25T01:21:35.558Z,0.00
2022-12-25T01:22:35.577Z,0.00
2022-12-25T01:23:35.553Z,0.00
2022-12-25T01:24:35.568Z,0.00
2022-12-25T01:25:35.516Z,0.00
2022-12-25T01:26:35.550Z,0.00
2022-12-25T01:27:35.493Z,0.00
2022-12-25T01:28:35.485Z,0.00
2022-12-25T01:29:35.463Z,0.00
2022-12-25T01:30:35.441Z,0.00
2022-12-25T01:31:35.495Z,0.00
2022-12-25T01:32:35.460Z,0.00
2022-12-25T01:33:35.416Z,0.00
2022-12-25T01:34:35.536Z,0.00
2022-12-25T01:35:35.496Z,0.00
2022-12-25T01:36:35.756Z,0.00
2022-12-25T01:37:35.354Z,0.00
2022-12-25T01:38:35.370Z,0.00
2022-12-25T01:39:35.355Z,0.00
2022-12-25T01:40:35.325Z,0.00
2022-12-25T01:41:35.324Z,0.00
2022-12-25T01:42:35.316Z,0.00
2022-12-25T01:43:35.295Z,0.00
2022-12-25T01:44:35.314Z,0.00
2022-12-25T01:45:35.336Z,0.00
2022-12-25T01:46:35.296Z,0.00
2022-12-25T01:47:35.245Z,0.00
2022-12-25T01:48:35.254Z,0.00
2022-12-25T01:49:35.235Z,0.00
2022-12-25T01:50:35.262Z,0.00
2022-12-25T01:51:35.221Z,0.00
2022-12-25T01:52:35.239Z,0.00
2022-12-25T01:53:35.532Z,0.00
2022-12-25T01:54:35.248Z,0.00
2022-12-25T01:55:35.323Z,0.00
2022-12-25T01:56:35.284Z,0.00
2022-12-25T01:57:39.073Z,0.00
2022-12-25T01:58:35.317Z,0.00
2022-12-25T01:59:35.302Z,0.00
2022-12-25T02:00:35.408Z,0.00
2022-12-25T02:01:35.370Z,0.00
2022-12-25T02:02:35.601Z,0.00
2022-12-25T02:03:35.235Z,0.00
2022-12-25T02:04:35.293Z,0.00
2022-12-25T02:05:35.229Z,0.00
2022-12-25T02:06:35.064Z,0.00
2022-12-25T02:07:35.284Z,0.00
2022-12-25T02:08:35.286Z,0.00
2022-12-25T02:09:34.995Z,0.00
2022-12-25T02:10:35.050Z,0.00
2022-12-25T02:11:34.984Z,0.00
2022-12-25T02:12:34.973Z,0.00
2022-12-25T02:13:34.966Z,0.00
2022-12-25T02:14:34.958Z,0.00
2022-12-25T02:15:34.932Z,0.00
2022-12-25T02:16:35.033Z,0.00
2022-12-25T02:17:35.935Z,0.00
2022-12-25T02:18:34.913Z,0.00
2022-12-25T02:19:34.888Z,0.00
2022-12-25T02:20:34.903Z,0.00
2022-12-25T02:21:34.874Z,0.00
2022-12-25T02:22:34.867Z,0.00
2022-12-25T02:23:34.847Z,0.00
2022-12-25T02:24:34.846Z,0.00
2022-12-25T02:25:34.822Z,0.00
2022-12-25T02:26:34.815Z,0.00
2022-12-25T02:27:34.795Z,0.00
2022-12-25T02:28:34.803Z,0.00
2022-12-25T02:29:34.780Z,0.00
2022-12-25T02:30:34.776Z,0.00
2022-12-25T02:31:34.785Z,0.00
2022-12-25T02:32:34.762Z,0.00
2022-12-25T02:33:34.769Z,0.00
2022-12-25T02:34:34.723Z,0.00
2022-12-25T02:35:34.703Z,0.00
2022-12-25T02:36:34.756Z,0.00
2022-12-25T02:37:34.691Z,0.00
2022-12-25T02:38:34.680Z,0.00
2022-12-25T02:39:34.751Z,0.00
2022-12-25T02:40:34.663Z,0.00
2022-12-25T02:41:34.650Z,0.00
2022-12-25T02:42:34.636Z,0.00
2022-12-25T02:43:34.623Z,0.00
2022-12-25T02:44:34.668Z,0.00
2022-12-25T02:45:34.635Z,0.00
2022-12-25T02:46:34.720Z,0.00
2022-12-25T02:47:34.565Z,0.00
2022-12-25T02:48:34.575Z,0.00
2022-12-25T02:49:34.607Z,0.00
2022-12-25T02:50:34.554Z,0.00
2022-12-25T02:51:35.079Z,0.00
2022-12-25T02:52:34.527Z,0.00
2022-12-25T02:53:34.515Z,0.00
2022-12-25T02:54:34.516Z,0.00
2022-12-25T02:55:34.500Z,0.00
2022-12-25T02:56:35.016Z,0.00
2022-12-25T02:57:34.457Z,0.00
2022-12-25T02:58:34.464Z,0.00
2022-12-25T02:59:34.437Z,0.00
2022-12-25T03:00:34.445Z,0.00
2022-12-25T03:01:34.585Z,0.00
2022-12-25T03:02:34.442Z,0.00
2022-12-25T03:03:34.438Z,0.00
2022-12-25T03:04:34.388Z,0.00
2022-12-25T03:05:34.376Z,0.00
2022-12-25T03:06:34.364Z,0.00
2022-12-25T03:07:34.364Z,0.00
2022-12-25T03:08:34.349Z,0.00
2022-12-25T03:09:34.334Z,0.00
2022-12-25T03:10:34.317Z,0.00
2022-12-25T03:11:34.284Z,0.00
2022-12-25T03:12:34.325Z,0.00
2022-12-25T03:13:34.285Z,0.00
2022-12-25T03:14:34.276Z,0.00
2022-12-25T03:15:34.275Z,0.00
2022-12-25T03:16:34.291Z,0.00
2022-12-25T03:17:34.259Z,0.00
2022-12-25T03:18:34.239Z,0.00
2022-12-25T03:19:34.227Z,0.00
2022-12-25T03:20:34.209Z,0.00
2022-12-25T03:21:34.194Z,0.00
2022-12-25T03:22:34.223Z,0.00
2022-12-25T03:23:34.179Z,0.00
2022-12-25T03:24:34.158Z,0.00
2022-12-25T03:25:34.154Z,0.00
2022-12-25T03:26:34.143Z,0.00
2022-12-25T03:27:34.126Z,0.00
2022-12-25T03:28:34.143Z,0.00
2022-12-25T03:29:34.108Z,0.00
2022-12-25T03:30:34.136Z,0.00
2022-12-25T03:31:34.099Z,0.00
2022-12-25T03:32:34.058Z,0.00
2022-12-25T03:33:44.999Z,0.00
2022-12-25T03:34:35.038Z,0.00
2022-12-25T03:35:34.077Z,0.00
2022-12-25T03:36:34.019Z,0.00
2022-12-25T03:37:34.019Z,0.00
2022-12-25T03:38:34.015Z,0.00
2022-12-25T03:39:33.995Z,0.00
2022-12-25T03:40:34.003Z,0.00
2022-12-25T03:41:33.988Z,0.00
2022-12-25T03:42:33.953Z,0.00
2022-12-25T03:43:33.957Z,0.00
2022-12-25T03:44:33.932Z,0.00
2022-12-25T03:45:33.948Z,0.00
2022-12-25T03:46:33.977Z,0.00
2022-12-25T03:47:33.922Z,0.00
2022-12-25T03:48:33.877Z,0.00
2022-12-25T03:49:33.892Z,0.00
2022-12-25T03:50:33.890Z,0.00
2022-12-25T03:51:33.856Z,0.00
2022-12-25T03:52:33.849Z,0.00
2022-12-25T03:53:33.844Z,0.00
2022-12-25T03:54:33.811Z,0.00
2022-12-25T03:55:33.827Z,0.00
2022-12-25T03:56:33.797Z,0.00
2022-12-25T03:57:33.787Z,0.00
2022-12-25T03:58:33.762Z,0.00
2022-12-25T03:59:33.767Z,0.00
2022-12-25T04:00:33.752Z,0.00
2022-12-25T04:01:33.876Z,0.00
2022-12-25T04:02:33.867Z,0.00
2022-12-25T04:03:33.805Z,0.00
2022-12-25T04:04:33.701Z,0.00
2022-12-25T04:05:34.075Z,0.00
2022-12-25T04:06:33.691Z,0.00
2022-12-25T04:07:33.683Z,0.00
2022-12-25T04:08:33.683Z,0.00
2022-12-25T04:09:33.676Z,0.00
2022-12-25T04:10:33.640Z,0.00
2022-12-25T04:11:33.668Z,0.00
2022-12-25T04:12:33.605Z,0.00
2022-12-25T04:13:33.607Z,0.00
2022-12-25T04:14:33.592Z,0.00
2022-12-25T04:15:33.614Z,0.00
2022-12-25T04:16:33.574Z,0.00
2022-12-25T04:17:33.589Z,0.00
2022-12-25T04:18:33.541Z,0.00
2022-12-25T04:19:33.542Z,0.00
2022-12-25T04:20:33.520Z,0.00
2022-12-25T04:21:33.512Z,0.00
2022-12-25T04:22:33.512Z,0.00
2022-12-25T04:23:33.487Z,0.00
2022-12-25T04:24:33.487Z,0.00
2022-12-25T04:25:33.592Z,0.00
2022-12-25T04:26:34.208Z,0.00
2022-12-25T04:27:40.815Z,0.00
2022-12-25T04:28:33.431Z,0.00
2022-12-25T04:29:33.429Z,0.00
2022-12-25T04:30:33.431Z,0.00
2022-12-25T04:31:33.494Z,0.00
2022-12-25T04:32:33.402Z,0.00
2022-12-25T04:33:33.381Z,0.00
2022-12-25T04:34:33.373Z,0.00
2022-12-25T04:35:33.397Z,0.00
2022-12-25T04:36:33.341Z,0.00
2022-12-25T04:37:33.350Z,0.00
2022-12-25T04:38:33.321Z,0.00
2022-12-25T04:39:33.331Z,0.00
2022-12-25T04:40:33.287Z,0.00
2022-12-25T04:41:33.305Z,0.00
2022-12-25T04:42:33.289Z,0.00
2022-12-25T04:43:33.305Z,0.00
2022-12-25T04:44:33.261Z,0.00
2022-12-25T04:45:33.252Z,0.00
2022-12-25T04:46:33.349Z,0.00
2022-12-25T04:47:33.261Z,0.00
2022-12-25T04:48:33.208Z,0.00
2022-12-25T04:49:33.213Z,0.00
2022-12-25T04:50:33.181Z,0.00
2022-12-25T04:51:33.185Z,0.00
2022-12-25T04:52:33.154Z,0.00
2022-12-25T04:53:33.197Z,0.00
2022-12-25T04:54:33.136Z,0.00
2022-12-25T04:55:33.140Z,0.00
2022-12-25T04:56:33.144Z,0.00
2022-12-25T04:57:33.124Z,0.00
2022-12-25T04:58:33.090Z,0.00
2022-12-25T04:59:33.089Z,0.00
2022-12-25T05:00:33.076Z,0.00
2022-12-25T05:01:33.186Z,0.00
2022-12-25T05:02:33.258Z,0.00
2022-12-25T05:03:33.104Z,0.00
2022-12-25T05:04:33.020Z,0.00
2022-12-25T05:05:33.023Z,0.00
2022-12-25T05:06:33.002Z,0.00
2022-12-25T05:07:33.020Z,0.00
2022-12-25T05:08:33.041Z,0.00
2022-12-25T05:09:33.056Z,0.00
2022-12-25T05:10:33.015Z,0.00
2022-12-25T05:11:33.084Z,0.00
2022-12-25T05:12:33.130Z,0.00
2022-12-25T05:13:33.161Z,0.00
2022-12-25T05:14:33.155Z,0.00
2022-12-25T05:15:33.127Z,0.00
2022-12-25T05:16:32.912Z,0.00
2022-12-25T05:17:32.900Z,0.00
2022-12-25T05:18:32.862Z,0.00
2022-12-25T05:19:32.878Z,0.00
2022-12-25T05:20:39.559Z,0.00
2022-12-25T05:21:33.841Z,0.00
2022-12-25T05:22:32.814Z,0.00
2022-12-25T05:23:32.877Z,0.00
2022-12-25T05:24:32.803Z,0.00
2022-12-25T05:25:32.805Z,0.00
2022-12-25T05:26:32.776Z,0.00
2022-12-25T05:27:32.775Z,0.00
2022-12-25T05:28:32.786Z,0.00
2022-12-25T05:29:32.750Z,0.00
2022-12-25T05:30:32.729Z,0.00
2022-12-25T05:31:32.970Z,0.00
2022-12-25T05:32:32.715Z,0.00
2022-12-25T05:33:32.714Z,0.00
2022-12-25T05:34:32.757Z,0.00
2022-12-25T05:35:32.706Z,0.00
2022-12-25T05:36:32.690Z,0.00
2022-12-25T05:37:32.657Z,0.00
2022-12-25T05:38:32.657Z,0.00
2022-12-25T05:39:32.655Z,0.00
2022-12-25T05:40:32.654Z,0.00
2022-12-25T05:41:34.772Z,0.00
2022-12-25T05:42:32.612Z,0.00
2022-12-25T05:43:32.611Z,0.00
2022-12-25T05:44:32.569Z,0.00
2022-12-25T05:45:32.599Z,0.00
2022-12-25T05:46:32.611Z,0.00
2022-12-25T05:47:32.563Z,0.00
2022-12-25T05:48:32.538Z,0.00
2022-12-25T05:49:32.540Z,0.00
2022-12-25T05:50:32.515Z,0.00
2022-12-25T05:51:32.546Z,0.00
2022-12-25T05:52:32.490Z,0.00
2022-12-25T05:53:32.529Z,0.00
2022-12-25T05:54:32.467Z,0.00
2022-12-25T05:55:32.462Z,0.00
2022-12-25T05:56:32.441Z,0.00
2022-12-25T05:57:32.459Z,0.00
2022-12-25T05:58:32.726Z,0.00
2022-12-25T05:59:32.434Z,0.00
2022-12-25T06:00:32.422Z,0.00
2022-12-25T06:01:32.558Z,0.00
2022-12-25T06:02:32.555Z,0.00
2022-12-25T06:03:32.435Z,0.00
2022-12-25T06:04:32.390Z,0.00
2022-12-25T06:05:32.346Z,0.00
2022-12-25T06:06:32.343Z,0.00
2022-12-25T06:07:32.325Z,0.00
2022-12-25T06:08:32.301Z,0.00
2022-12-25T06:09:32.295Z,0.00
2022-12-25T06:10:32.303Z,0.00
2022-12-25T06:11:32.294Z,0.00
2022-12-25T06:12:32.259Z,0.00
2022-12-25T06:13:32.262Z,0.00
2022-12-25T06:14:32.958Z,0.00
2022-12-25T06:15:32.236Z,0.00
2022-12-25T06:16:37.897Z,0.00
2022-12-25T06:17:33.222Z,0.00
2022-12-25T06:18:32.203Z,0.00
2022-12-25T06:19:32.194Z,0.00
2022-12-25T06:20:32.166Z,0.00
2022-12-25T06:21:32.191Z,0.00
2022-12-25T06:22:32.202Z,0.00
2022-12-25T06:23:32.208Z,0.00
2022-12-25T06:24:32.134Z,0.00
2022-12-25T06:25:32.126Z,0.00
2022-12-25T06:26:32.116Z,0.00
2022-12-25T06:27:32.102Z,0.00
2022-12-25T06:28:32.100Z,0.00
2022-12-25T06:29:32.085Z,0.00
2022-12-25T06:30:32.059Z,0.00
2022-12-25T06:31:32.106Z,0.00
2022-12-25T06:32:32.042Z,0.00
2022-12-25T06:33:32.062Z,0.00
2022-12-25T06:34:32.179Z,0.00
2022-12-25T06:35:32.063Z,0.00
2022-12-25T06:36:31.988Z,0.00
2022-12-25T06:37:31.987Z,0.00
2022-12-25T06:38:31.974Z,0.00
2022-12-25T06:39:31.958Z,0.00
2022-12-25T06:40:31.935Z,0.00
2022-12-25T06:41:31.988Z,0.00
2022-12-25T06:42:31.915Z,0.00
2022-12-25T06:43:31.935Z,0.00
2022-12-25T06:44:31.881Z,0.00
2022-12-25T06:45:31.923Z,0.00
2022-12-25T06:46:31.862Z,0.00
2022-12-25T06:47:31.876Z,0.00
2022-12-25T06:48:31.843Z,0.00
2022-12-25T06:49:31.851Z,0.00
2022-12-25T06:50:31.827Z,0.00
2022-12-25T06:51:31.816Z,0.00
2022-12-25T06:52:31.806Z,0.00
2022-12-25T06:53:38.877Z,0.00
2022-12-25T06:54:32.804Z,0.00
2022-12-25T06:55:31.779Z,0.00
2022-12-25T06:56:31.811Z,0.00
2022-12-25T06:57:31.834Z,0.00
2022-12-25T06:58:31.834Z,0.00
2022-12-25T06:59:31.906Z,0.00
2022-12-25T07:00:31.862Z,0.00
2022-12-25T07:01:31.974Z,0.00
2022-12-25T07:02:31.919Z,0.00
2022-12-25T07:03:31.914Z,0.00
2022-12-25T07:04:31.874Z,0.00
2022-12-25T07:05:31.904Z,4.00
2022-12-25T07:06:31.873Z,4.00
2022-12-25T07:07:31.946Z,4.00
2022-12-25T07:08:31.885Z,0.00
2022-12-25T07:09:31.954Z,0.00
2022-12-25T07:10:31.953Z,4.00
2022-12-25T07:11:31.997Z,4.00
2022-12-25T07:12:31.600Z,0.00
2022-12-25T07:13:31.572Z,4.00
2022-12-25T07:14:32.086Z,4.00
2022-12-25T07:15:31.571Z,4.00
2022-12-25T07:16:31.565Z,8.00
2022-12-25T07:17:31.555Z,8.00
2022-12-25T07:18:31.523Z,4.00
2022-12-25T07:19:31.502Z,8.00
2022-12-25T07:20:31.514Z,12.00
2022-12-25T07:21:31.487Z,8.00
2022-12-25T07:22:31.473Z,12.00
2022-12-25T07:23:31.481Z,12.00
2022-12-25T07:24:31.450Z,12.00
2022-12-25T07:25:36.987Z,16.00
2022-12-25T07:26:32.437Z,12.00
2022-12-25T07:27:31.419Z,16.00
2022-12-25T07:28:31.448Z,16.00
2022-12-25T07:29:31.422Z,24.00
2022-12-25T07:30:31.376Z,24.00
2022-12-25T07:31:31.435Z,28.00
2022-12-25T07:32:31.378Z,28.00
2022-12-25T07:33:31.355Z,32.00
2022-12-25T07:34:31.763Z,36.00
2022-12-25T07:35:31.332Z,36.00
2022-12-25T07:36:31.303Z,40.00
2022-12-25T07:37:31.288Z,44.00
2022-12-25T07:38:31.320Z,44.00
2022-12-25T07:39:31.276Z,48.00
2022-12-25T07:40:31.294Z,52.00
2022-12-25T07:41:31.248Z,52.00
2022-12-25T07:42:31.270Z,56.00
2022-12-25T07:43:31.231Z,56.00
2022-12-25T07:44:31.243Z,56.00
2022-12-25T07:45:31.220Z,60.00
2022-12-25T07:46:31.233Z,64.00
2022-12-25T07:47:31.186Z,72.00
2022-12-25T07:48:31.185Z,76.00
2022-12-25T07:49:31.202Z,80.00
2022-12-25T07:50:31.183Z,88.00
2022-12-25T07:51:31.159Z,92.00
2022-12-25T07:52:31.146Z,96.00
2022-12-25T07:53:31.124Z,104.00
2022-12-25T07:54:31.125Z,112.00
2022-12-25T07:55:31.115Z,112.00
2022-12-25T07:56:31.114Z,116.00
2022-12-25T07:57:31.068Z,124.00
2022-12-25T07:58:31.071Z,128.00
2022-12-25T07:59:31.064Z,128.00
2022-12-25T08:00:31.064Z,132.00
2022-12-25T08:01:31.239Z,144.00
2022-12-25T08:02:31.284Z,152.00
2022-12-25T08:03:31.316Z,156.00
2022-12-25T08:04:31.008Z,152.00
2022-12-25T08:05:30.984Z,148.00
2022-12-25T08:06:30.999Z,144.00
2022-12-25T08:07:30.947Z,148.00
2022-12-25T08:08:30.972Z,144.00
2022-12-25T08:09:30.945Z,132.00
2022-12-25T08:10:30.938Z,128.00
2022-12-25T08:11:30.944Z,136.00
2022-12-25T08:12:30.910Z,156.00
2022-12-25T08:13:30.895Z,172.00
2022-12-25T08:14:30.892Z,156.00
2022-12-25T08:15:30.868Z,144.00
2022-12-25T08:16:30.929Z,140.00
2022-12-25T08:17:30.862Z,144.00
2022-12-25T08:18:30.841Z,148.00
2022-12-25T08:19:30.818Z,156.00
2022-12-25T08:20:30.859Z,168.00
2022-12-25T08:21:30.796Z,188.00
2022-12-25T08:22:30.820Z,208.00
2022-12-25T08:23:31.198Z,240.00
2022-12-25T08:24:30.785Z,276.00
2022-12-25T08:25:30.771Z,304.00
2022-12-25T08:26:30.768Z,328.00
2022-12-25T08:27:30.728Z,348.00
2022-12-25T08:28:30.740Z,360.00
2022-12-25T08:29:30.703Z,376.00
2022-12-25T08:30:30.791Z,384.00
2022-12-25T08:31:30.829Z,388.00
2022-12-25T08:32:30.672Z,392.00
2022-12-25T08:33:30.670Z,392.00
2022-12-25T08:34:30.729Z,380.00
2022-12-25T08:35:30.827Z,376.00
2022-12-25T08:36:30.649Z,388.00
2022-12-25T08:37:30.728Z,408.00
2022-12-25T08:38:30.609Z,432.00
2022-12-25T08:39:30.594Z,444.00
2022-12-25T08:40:30.586Z,456.00
2022-12-25T08:41:30.795Z,460.00
2022-12-25T08:42:30.594Z,448.00
2022-12-25T08:43:30.554Z,424.00
2022-12-25T08:44:30.545Z,400.00
2022-12-25T08:45:35.052Z,368.00
2022-12-25T08:46:31.590Z,332.00
2022-12-25T08:47:30.498Z,304.00
2022-12-25T08:48:30.502Z,272.00
2022-12-25T08:49:30.508Z,252.00
2022-12-25T08:50:30.489Z,240.00
2022-12-25T08:51:30.472Z,228.00
2022-12-25T08:52:30.457Z,212.00
2022-12-25T08:53:30.490Z,196.00
2022-12-25T08:54:30.462Z,188.00
2022-12-25T08:55:30.425Z,184.00
2022-12-25T08:56:30.417Z,172.00
2022-12-25T08:57:30.408Z,168.00
2022-12-25T08:58:30.423Z,160.00
2022-12-25T08:59:30.382Z,152.00
2022-12-25T09:00:30.388Z,140.00
2022-12-25T09:01:30.401Z,132.00
2022-12-25T09:02:30.669Z,128.00
2022-12-25T09:03:30.381Z,128.00
2022-12-25T09:04:30.315Z,128.00
2022-12-25T09:05:30.308Z,128.00
2022-12-25T09:06:30.296Z,124.00
2022-12-25T09:07:30.268Z,124.00
2022-12-25T09:08:30.269Z,132.00
2022-12-25T09:09:30.254Z,136.00
2022-12-25T09:10:30.271Z,144.00
2022-12-25T09:11:30.225Z,148.00
2022-12-25T09:12:30.231Z,156.00
2022-12-25T09:13:30.202Z,160.00
2022-12-25T09:14:30.204Z,160.00
2022-12-25T09:15:30.404Z,160.00
2022-12-25T09:16:30.254Z,164.00
2022-12-25T09:17:30.239Z,164.00
2022-12-25T09:18:30.159Z,164.00
2022-12-25T09:19:30.147Z,172.00
2022-12-25T09:20:30.141Z,176.00
2022-12-25T09:21:30.125Z,184.00
2022-12-25T09:22:30.155Z,196.00
2022-12-25T09:23:30.103Z,204.00
2022-12-25T09:24:30.110Z,216.00
2022-12-25T09:25:30.100Z,224.00
2022-12-25T09:26:30.093Z,236.00
2022-12-25T09:27:30.089Z,248.00
2022-12-25T09:28:30.083Z,260.00
2022-12-25T09:29:37.086Z,272.00
2022-12-25T09:30:30.111Z,284.00
2022-12-25T09:31:30.063Z,296.00
2022-12-25T09:32:30.043Z,300.00
2022-12-25T09:33:30.032Z,308.00
2022-12-25T09:34:30.019Z,316.00
2022-12-25T09:35:29.958Z,320.00
2022-12-25T09:36:30.004Z,328.00
2022-12-25T09:37:29.939Z,336.00
2022-12-25T09:38:29.947Z,340.00
2022-12-25T09:39:33.847Z,348.00
2022-12-25T09:40:29.920Z,360.00
2022-12-25T09:41:29.925Z,376.00
2022-12-25T09:42:29.965Z,392.00
2022-12-25T09:43:37.474Z,408.00
2022-12-25T09:44:30.056Z,416.00
2022-12-25T09:45:29.966Z,408.00
2022-12-25T09:46:36.755Z,388.00
2022-12-25T09:47:30.835Z,364.00
2022-12-25T09:48:29.985Z,340.00
2022-12-25T09:49:29.996Z,324.00
2022-12-25T09:50:30.012Z,308.00
2022-12-25T09:51:30.005Z,292.00
2022-12-25T09:52:30.044Z,280.00
2022-12-25T09:53:30.021Z,264.00
2022-12-25T09:54:30.103Z,256.00
2022-12-25T09:55:30.053Z,252.00
2022-12-25T09:56:30.074Z,248.00
2022-12-25T09:57:29.911Z,252.00
2022-12-25T09:58:30.060Z,244.00
2022-12-25T09:59:30.145Z,236.00
2022-12-25T10:00:30.040Z,232.00
2022-12-25T10:01:29.723Z,228.00
2022-12-25T10:02:29.771Z,224.00
2022-12-25T10:03:30.185Z,216.00
2022-12-25T10:04:29.641Z,204.00
2022-12-25T10:05:29.632Z,192.00
2022-12-25T10:06:29.620Z,180.00
2022-12-25T10:07:29.586Z,176.00
2022-12-25T10:08:36.674Z,176.00
2022-12-25T10:09:29.602Z,180.00
2022-12-25T10:10:29.579Z,180.00
2022-12-25T10:11:29.595Z,184.00
2022-12-25T10:12:29.573Z,188.00
2022-12-25T10:13:29.543Z,188.00
2022-12-25T10:14:29.574Z,196.00
2022-12-25T10:15:29.556Z,208.00
2022-12-25T10:16:29.585Z,228.00
2022-12-25T10:17:29.475Z,248.00
2022-12-25T10:18:29.475Z,260.00
2022-12-25T10:19:29.472Z,260.00
2022-12-25T10:20:29.470Z,252.00
2022-12-25T10:21:29.446Z,236.00
2022-12-25T10:22:29.434Z,220.00
2022-12-25T10:23:29.479Z,204.00
2022-12-25T10:24:29.399Z,196.00
2022-12-25T10:25:29.394Z,188.00
2022-12-25T10:26:29.389Z,180.00
2022-12-25T10:27:29.420Z,176.00
2022-12-25T10:28:29.365Z,180.00
2022-12-25T10:29:29.346Z,188.00
2022-12-25T10:30:29.350Z,184.00
2022-12-25T10:31:29.358Z,172.00
2022-12-25T10:32:29.315Z,164.00
2022-12-25T10:33:29.311Z,156.00
2022-12-25T10:34:29.324Z,156.00
2022-12-25T10:35:29.314Z,152.00
2022-12-25T10:36:29.309Z,156.00
2022-12-25T10:37:29.247Z,156.00
2022-12-25T10:38:29.255Z,160.00
2022-12-25T10:39:29.234Z,164.00
2022-12-25T10:40:29.235Z,164.00
2022-12-25T10:41:29.208Z,172.00
2022-12-25T10:42:29.245Z,180.00
2022-12-25T10:43:29.190Z,192.00
2022-12-25T10:44:29.179Z,204.00
2022-12-25T10:45:29.183Z,216.00
2022-12-25T10:46:29.238Z,212.00
2022-12-25T10:47:29.146Z,200.00
2022-12-25T10:48:29.141Z,200.00
2022-12-25T10:49:29.205Z,208.00
2022-12-25T10:50:29.203Z,220.00
2022-12-25T10:51:29.135Z,252.00
2022-12-25T10:52:29.113Z,280.00
2022-12-25T10:53:29.077Z,308.00
2022-12-25T10:54:29.059Z,336.00
2022-12-25T10:55:29.909Z,352.00
2022-12-25T10:56:29.051Z,368.00
2022-12-25T10:57:29.233Z,380.00
2022-12-25T10:58:29.027Z,408.00
2022-12-25T10:59:29.078Z,436.00
2022-12-25T11:00:29.015Z,444.00
2022-12-25T11:01:29.208Z,464.00
2022-12-25T11:02:29.177Z,492.00
2022-12-25T11:03:29.030Z,524.00
2022-12-25T11:04:28.960Z,556.00
2022-12-25T11:05:28.953Z,584.00
2022-12-25T11:06:28.965Z,588.00
2022-12-25T11:07:28.965Z,588.00
2022-12-25T11:08:28.910Z,576.00
2022-12-25T11:09:28.899Z,552.00
2022-12-25T11:10:28.919Z,492.00
2022-12-25T11:11:28.879Z,444.00
2022-12-25T11:12:28.904Z,412.00
2022-12-25T11:13:28.846Z,396.00
2022-12-25T11:14:28.843Z,392.00
2022-12-25T11:15:28.895Z,372.00
2022-12-25T11:16:28.890Z,352.00
2022-12-25T11:17:28.799Z,356.00
2022-12-25T11:18:28.813Z,364.00
2022-12-25T11:19:28.771Z,368.00
2022-12-25T11:20:28.778Z,360.00
2022-12-25T11:21:28.770Z,344.00
2022-12-25T11:22:28.773Z,348.00
2022-12-25T11:23:28.728Z,352.00
2022-12-25T11:24:28.729Z,352.00
2022-12-25T11:25:28.711Z,340.00
2022-12-25T11:26:28.711Z,308.00
2022-12-25T11:27:28.696Z,252.00
2022-12-25T11:28:28.709Z,212.00
2022-12-25T11:29:28.691Z,188.00
2022-12-25T11:30:29.210Z,176.00
2022-12-25T11:31:28.718Z,156.00
2022-12-25T11:32:28.664Z,148.00
2022-12-25T11:33:28.639Z,152.00
2022-12-25T11:34:28.619Z,164.00
2022-12-25T11:35:28.597Z,172.00
2022-12-25T11:36:28.592Z,176.00
2022-12-25T11:37:28.591Z,180.00
2022-12-25T11:38:28.601Z,192.00
2022-12-25T11:39:28.551Z,204.00
2022-12-25T11:40:28.554Z,208.00
2022-12-25T11:41:28.533Z,200.00
2022-12-25T11:42:28.663Z,188.00
2022-12-25T11:43:28.501Z,192.00
2022-12-25T11:44:28.518Z,200.00
2022-12-25T11:45:28.525Z,200.00
2022-12-25T11:46:28.535Z,200.00
2022-12-25T11:47:28.499Z,192.00
2022-12-25T11:48:28.474Z,188.00
2022-12-25T11:49:28.460Z,184.00
2022-12-25T11:50:28.435Z,180.00
2022-12-25T11:51:28.437Z,196.00
2022-12-25T11:52:28.430Z,212.00
2022-12-25T11:53:28.407Z,224.00
2022-12-25T11:54:28.391Z,236.00
2022-12-25T11:55:28.389Z,224.00
2022-12-25T11:56:28.378Z,224.00
2022-12-25T11:57:28.372Z,200.00
2022-12-25T11:58:28.342Z,180.00
2022-12-25T11:59:28.338Z,176.00
2022-12-25T12:00:28.307Z,168.00
2022-12-25T12:01:28.509Z,156.00
2022-12-25T12:02:28.438Z,148.00
2022-12-25T12:03:28.493Z,156.00
2022-12-25T12:04:31.041Z,148.00
2022-12-25T12:05:28.311Z,144.00
2022-12-25T12:06:28.256Z,156.00
2022-12-25T12:07:28.261Z,152.00
2022-12-25T12:08:28.247Z,148.00
2022-12-25T12:09:28.244Z,140.00
2022-12-25T12:10:28.205Z,140.00
2022-12-25T12:11:28.207Z,144.00
2022-12-25T12:12:28.220Z,144.00
2022-12-25T12:13:28.172Z,136.00
2022-12-25T12:14:28.159Z,140.00
2022-12-25T12:15:28.182Z,152.00
2022-12-25T12:16:28.202Z,180.00
2022-12-25T12:17:28.124Z,204.00
2022-12-25T12:18:28.180Z,232.00
2022-12-25T12:19:28.111Z,256.00
2022-12-25T12:20:28.105Z,264.00
2022-12-25T12:21:28.099Z,232.00
2022-12-25T12:22:28.067Z,192.00
2022-12-25T12:23:28.080Z,160.00
2022-12-25T12:24:28.052Z,152.00
2022-12-25T12:25:28.027Z,164.00
2022-12-25T12:26:28.021Z,176.00
2022-12-25T12:27:28.032Z,200.00
2022-12-25T12:28:28.010Z,220.00
2022-12-25T12:29:27.993Z,228.00
2022-12-25T12:30:27.980Z,216.00
2022-12-25T12:31:28.024Z,180.00
2022-12-25T12:32:27.947Z,160.00
2022-12-25T12:33:27.952Z,164.00
2022-12-25T12:34:27.921Z,168.00
2022-12-25T12:35:27.980Z,176.00
2022-12-25T12:36:36.162Z,188.00
2022-12-25T12:37:28.901Z,200.00
2022-12-25T12:38:27.903Z,208.00
2022-12-25T12:39:28.618Z,220.00
2022-12-25T12:40:27.872Z,236.00
2022-12-25T12:41:27.943Z,236.00
2022-12-25T12:42:27.853Z,232.00
2022-12-25T12:43:27.982Z,224.00
2022-12-25T12:44:27.821Z,228.00
2022-12-25T12:45:27.911Z,248.00
2022-12-25T12:46:31.083Z,276.00
2022-12-25T12:47:27.788Z,308.00
2022-12-25T12:48:27.776Z,340.00
2022-12-25T12:49:27.773Z,384.00
2022-12-25T12:50:27.744Z,424.00
2022-12-25T12:51:27.871Z,440.00
2022-12-25T12:52:27.725Z,432.00
2022-12-25T12:53:27.721Z,440.00
2022-12-25T12:54:27.690Z,432.00
2022-12-25T12:55:27.693Z,400.00
2022-12-25T12:56:27.695Z,364.00
2022-12-25T12:57:27.770Z,308.00